Time;durP1;ratioP1;P1;durP2;ratioP2;P2;SDS_P1;SDS_P2;PMS_P1;PMS_P2;Temp;Humidity;BMP_temperature;BMP_pressure;BME280_temperature;BME280_humidity;BME280_pressure;Samples;Min_cycle;Max_cycle;Signal;HPM_P1;HPM_P2
2022/02/06 00:02:16;;;;;;;68.15;47.40;;;;;;;4.00;57.91;101130.88;4992293;28;20046;-77
2022/02/06 00:04:43;;;;;;;61.72;42.67;;;;;;;4.12;57.96;101146.03;5000665;28;20136;-77
2022/02/06 00:07:56;;;;;;;61.90;43.72;;;;;;;4.12;58.09;101147.72;4991804;28;20038;-77
2022/02/06 00:10:51;;;;;;;54.45;42.95;;;;;;;4.07;58.43;101163.13;5008637;28;20125;-77
2022/02/06 00:13:17;;;;;;;57.55;40.55;;;;;;;3.85;59.21;101155.34;5010175;28;20092;-77
2022/02/06 00:15:42;;;;;;;55.45;39.00;;;;;;;3.93;59.52;101173.00;4995579;28;20050;-77
2022/02/06 00:18:08;;;;;;;54.95;33.08;;;;;;;3.96;60.59;101167.94;4996389;28;20458;-77
2022/02/06 00:20:38;;;;;;;47.45;36.50;;;;;;;3.97;60.71;101168.81;5010981;28;20048;-77
2022/02/06 00:23:11;;;;;;;47.80;35.28;;;;;;;3.97;60.80;101176.59;5012736;28;20042;-78
2022/02/06 00:41:15;;;;;;;53.20;34.22;;;;;;;3.49;63.88;101192.88;4993514;28;20485;-77
2022/02/06 00:43:44;;;;;;;40.40;34.45;;;;;;;3.66;63.36;101190.97;4997991;28;20045;-77
2022/02/06 00:46:12;;;;;;;47.33;33.35;;;;;;;3.61;63.14;101183.81;5013381;28;20069;-77
2022/02/06 00:52:38;;;;;;;53.90;36.40;;;;;;;3.39;64.46;101203.66;5014890;28;20087;-76
2022/02/06 00:58:27;;;;;;;43.42;31.40;;;;;;;3.37;64.97;101198.44;5011602;28;20056;-78
2022/02/06 01:00:53;;;;;;;40.75;31.83;;;;;;;3.54;64.63;101199.13;5006103;28;20450;-78
2022/02/06 01:03:18;;;;;;;42.88;30.58;;;;;;;3.48;64.63;101197.97;5013396;28;20072;-77
2022/02/06 01:05:44;;;;;;;41.53;30.35;;;;;;;3.32;65.47;101196.44;5012436;28;20049;-78
2022/02/06 01:11:41;;;;;;;41.13;30.40;;;;;;;3.28;65.81;101181.59;5012144;28;20119;-78
2022/02/06 01:15:15;;;;;;;39.55;30.70;;;;;;;3.20;66.25;101193.34;5007249;28;20042;-78
2022/02/06 01:19:50;;;;;;;41.22;30.15;;;;;;;2.92;67.31;101193.03;5014042;28;20137;-77
2022/02/06 01:22:21;;;;;;;40.63;31.02;;;;;;;3.15;66.72;101209.59;5015676;28;20050;-78
2022/02/06 01:25:00;;;;;;;48.67;30.80;;;;;;;3.21;66.60;101197.69;5007859;28;20037;-77
2022/02/06 01:27:37;;;;;;;46.42;31.33;;;;;;;3.11;66.66;101205.13;5009752;28;20528;-76
2022/02/06 01:30:15;;;;;;;43.20;29.90;;;;;;;3.30;66.56;101213.66;5007199;28;20129;-77
2022/02/06 01:32:50;;;;;;;38.80;28.02;;;;;;;3.12;66.99;101222.44;5001039;28;20037;-79
2022/02/06 01:35:20;;;;;;;52.40;29.13;;;;;;;3.12;66.61;101206.88;5002922;28;20026;-78
2022/02/06 01:37:59;;;;;;;41.63;30.67;;;;;;;3.17;66.85;101217.44;5014957;28;20425;-78
2022/02/06 01:40:35;;;;;;;36.58;28.40;;;;;;;3.10;67.24;101207.63;5004900;28;20138;-76
2022/02/06 01:43:10;;;;;;;38.72;27.85;;;;;;;3.14;66.93;101218.22;4995648;28;20069;-76
2022/02/06 02:08:01;;;;;;;46.75;32.50;;;;;;;3.12;68.01;101230.22;5004535;28;20125;-77
2022/02/06 02:46:27;;;;;;;33.65;24.92;;;;;;;2.90;68.90;101253.41;5002073;28;20034;-78
2022/02/06 02:49:30;;;;;;;29.80;22.05;;;;;;;2.89;69.13;101249.06;5012826;28;20124;-77
2022/02/06 02:52:01;;;;;;;32.13;22.25;;;;;;;2.85;69.32;101247.13;5004451;28;20022;-76
2022/02/06 02:54:29;;;;;;;29.17;22.85;;;;;;;2.69;69.51;101233.50;5013875;28;20034;-76
2022/02/06 02:57:22;;;;;;;38.60;22.23;;;;;;;2.84;69.01;101240.19;5009161;28;20025;-76
2022/02/06 03:02:59;;;;;;;43.97;23.33;;;;;;;2.87;68.95;101251.56;4991065;28;20096;-76
2022/02/06 03:05:25;;;;;;;23.48;19.35;;;;;;;2.90;69.06;101251.72;4983838;28;20034;-76
2022/02/06 03:07:52;;;;;;;24.17;19.75;;;;;;;2.82;69.24;101247.91;5006952;28;20042;-76
2022/02/06 03:10:18;;;;;;;26.42;20.67;;;;;;;2.86;69.02;101252.41;5003417;28;20097;-76
2022/02/06 03:12:48;;;;;;;27.42;17.80;;;;;;;2.94;68.94;101260.50;5009525;28;20042;-76
2022/02/06 03:19:22;;;;;;;32.25;16.85;;;;;;;2.80;69.55;101253.84;5003660;28;20040;-77
2022/02/06 03:21:47;;;;;;;28.50;18.88;;;;;;;2.83;69.31;101253.97;4992373;28;20046;-77
2022/02/06 03:30:05;;;;;;;28.77;17.90;;;;;;;2.88;69.15;101247.25;5010676;28;20041;-77
2022/02/06 03:32:30;;;;;;;22.52;15.95;;;;;;;2.78;69.29;101260.66;5026703;28;20029;-78
2022/02/06 03:34:56;;;;;;;23.25;16.45;;;;;;;2.82;69.34;101255.66;5026795;28;20042;-78
2022/02/06 03:37:21;;;;;;;22.25;16.15;;;;;;;2.87;69.28;101258.47;5010270;28;20037;-78
2022/02/06 03:40:01;;;;;;;23.27;16.85;;;;;;;2.97;68.95;101258.03;5010590;28;20041;-79
2022/02/06 03:49:14;;;;;;;27.10;15.68;;;;;;;2.90;68.96;101253.41;4993533;28;20093;-77
2022/02/06 03:51:39;;;;;;;20.85;14.18;;;;;;;2.86;69.13;101254.13;5025050;28;20529;-77
2022/02/06 03:54:08;;;;;;;21.58;15.60;;;;;;;2.77;69.28;101253.69;5010011;28;20141;-77
2022/02/06 03:56:35;;;;;;;22.50;14.30;;;;;;;2.75;69.24;101254.50;5001665;28;20044;-77
2022/02/06 03:59:03;;;;;;;25.85;14.98;;;;;;;2.92;68.99;101254.38;5008432;28;22025;-78
2022/02/06 04:01:29;;;;;;;17.83;13.50;;;;;;;2.83;68.95;101252.25;5007498;28;20061;-77
2022/02/06 04:03:55;;;;;;;20.48;13.88;;;;;;;2.77;69.15;101244.22;5003089;28;20142;-77
2022/02/06 04:06:22;;;;;;;17.90;12.18;;;;;;;2.81;68.62;101243.53;4990534;28;20046;-77
2022/02/06 04:08:49;;;;;;;17.13;12.20;;;;;;;2.92;68.42;101260.44;5002670;28;20026;-77
2022/02/06 04:11:25;;;;;;;18.05;11.55;;;;;;;2.93;67.89;101256.16;5010034;28;20061;-76
2022/02/06 04:14:05;;;;;;;15.48;12.00;;;;;;;2.85;68.25;101252.31;5012689;28;20045;-77
2022/02/06 04:16:48;;;;;;;16.10;11.55;;;;;;;2.89;68.09;101267.19;4994889;28;20030;-77
2022/02/06 04:19:20;;;;;;;16.75;11.95;;;;;;;2.94;67.72;101266.56;5010419;28;20042;-77
2022/02/06 04:28:47;;;;;;;17.88;12.88;;;;;;;3.01;68.28;101261.69;5001725;28;20101;-77
2022/02/06 04:31:12;;;;;;;17.50;13.13;;;;;;;2.99;68.43;101263.31;5009764;28;20058;-77
2022/02/06 04:33:38;;;;;;;15.82;12.73;;;;;;;2.95;69.04;101251.94;4997846;28;20529;-77
2022/02/06 04:36:06;;;;;;;18.20;13.48;;;;;;;2.97;68.48;101258.03;5007346;28;20425;-77
2022/02/06 05:28:51;;;;;;;23.52;14.18;;;;;;;3.08;68.63;101267.19;4996020;28;20038;-77
2022/02/06 05:33:58;;;;;;;20.70;14.10;;;;;;;3.04;68.62;101267.00;4996756;28;20128;-77
2022/02/06 05:36:24;;;;;;;21.60;13.63;;;;;;;3.08;68.61;101279.28;5013825;28;20062;-77
2022/02/06 05:38:49;;;;;;;18.50;13.68;;;;;;;3.20;68.01;101269.44;5011731;28;20105;-76
2022/02/06 05:41:15;;;;;;;21.13;14.27;;;;;;;3.22;67.98;101272.09;5013730;28;20117;-77
2022/02/06 05:50:23;;;;;;;30.48;17.60;;;;;;;3.01;68.61;101279.81;4995750;28;20081;-77
2022/02/06 05:52:58;;;;;;;24.17;16.85;;;;;;;2.96;68.98;101270.13;5012173;28;20071;-76
2022/02/06 05:55:25;;;;;;;27.60;17.50;;;;;;;3.01;68.82;101272.03;5014598;28;20034;-76
2022/02/06 05:58:25;;;;;;;27.45;18.25;;;;;;;3.00;68.84;101275.44;5015317;28;20046;-76
2022/02/06 06:03:14;;;;;;;24.80;19.50;;;;;;;2.81;69.12;101265.97;5105253;27;20611;-77
2022/02/06 06:05:40;;;;;;;37.20;20.15;;;;;;;2.83;68.94;101282.47;5090542;28;20137;-77
2022/02/06 06:08:47;;;;;;;25.00;19.63;;;;;;;2.94;68.91;101291.63;5089680;28;20055;-77
2022/02/06 06:11:12;;;;;;;25.25;18.67;;;;;;;2.94;68.97;101265.69;5087058;28;20087;-77
2022/02/06 06:13:38;;;;;;;24.70;19.73;;;;;;;2.93;69.04;101287.28;5100956;28;20419;-76
2022/02/06 06:16:05;;;;;;;45.10;21.25;;;;;;;2.90;68.71;101272.47;5088844;28;20037;-75
2022/02/06 06:25:52;;;;;;;26.00;21.13;;;;;;;3.18;68.10;101276.25;5088160;28;20137;-76
2022/02/06 06:28:18;;;;;;;24.98;21.48;;;;;;;3.11;68.41;101284.59;5109665;28;20027;-78
2022/02/06 06:30:44;;;;;;;36.28;22.85;;;;;;;3.02;67.94;101268.63;5097309;28;20040;-77
2022/02/06 06:33:09;;;;;;;27.70;22.30;;;;;;;3.06;67.73;101265.34;5089259;28;20040;-77
2022/02/06 06:38:56;;;;;;;30.58;23.50;;;;;;;3.08;67.89;101271.50;5089690;28;20140;-76
2022/02/06 06:41:22;;;;;;;38.95;27.17;;;;;;;3.12;67.71;101269.09;5073361;28;20095;-78
2022/02/06 06:43:47;;;;;;;31.10;23.42;;;;;;;2.95;67.30;101270.09;5088488;28;20081;-77
2022/02/06 06:46:14;;;;;;;38.58;24.58;;;;;;;2.93;67.49;101277.78;5088093;28;20032;-76
2022/02/06 06:58:48;;;;;;;35.50;27.23;;;;;;;3.13;66.35;101283.84;5088424;28;20062;-75
2022/02/06 07:14:05;;;;;;;33.53;25.77;;;;;;;3.36;63.82;101268.41;5079787;28;20110;-76
2022/02/06 07:16:31;;;;;;;30.45;23.80;;;;;;;3.40;63.53;101285.00;5071988;28;20471;-76
2022/02/06 07:18:56;;;;;;;31.55;26.55;;;;;;;3.57;63.23;101276.22;5073623;28;20035;-77
2022/02/06 07:21:24;;;;;;;39.13;27.10;;;;;;;3.64;62.98;101273.03;5073181;28;20505;-76
2022/02/06 07:27:22;;;;;;;32.15;24.13;;;;;;;4.05;61.10;101284.25;5075184;28;20078;-76
2022/02/06 07:29:48;;;;;;;31.00;25.02;;;;;;;3.92;60.34;101287.19;5073388;28;20078;-77
2022/02/06 07:32:14;;;;;;;31.52;23.50;;;;;;;3.97;60.21;101280.44;5075202;28;20048;-77
2022/02/06 07:38:01;;;;;;;30.48;23.90;;;;;;;4.04;60.11;101286.78;5075272;28;20124;-77
2022/02/06 07:40:51;;;;;;;33.58;24.10;;;;;;;4.08;60.10;101289.56;5073066;28;20068;-76
2022/02/06 07:43:18;;;;;;;27.42;23.27;;;;;;;4.38;59.09;101289.03;5058307;28;20132;-77
2022/02/06 07:45:44;;;;;;;28.52;23.20;;;;;;;4.37;59.62;101297.63;5073344;28;20041;-78
2022/02/06 07:48:11;;;;;;;25.33;21.65;;;;;;;4.30;59.54;101293.03;5074644;28;20470;-78
2022/02/06 07:50:38;;;;;;;30.15;23.50;;;;;;;4.35;58.63;101281.97;5073574;28;20036;-78
2022/02/06 07:53:04;;;;;;;27.98;22.92;;;;;;;4.32;58.44;101297.44;5075275;28;20044;-79
2022/02/06 07:55:30;;;;;;;29.20;21.92;;;;;;;4.42;58.11;101286.63;5065586;28;20484;-75
2022/02/06 07:57:56;;;;;;;36.47;22.42;;;;;;;4.60;57.02;101288.13;5074279;28;20041;-75
2022/02/06 08:03:43;;;;;;;27.75;23.33;;;;;;;4.69;57.03;101293.69;5069898;28;20047;-76
2022/02/06 08:09:56;;;;;;;39.17;22.25;;;;;;;4.98;56.28;101278.28;5074091;28;20036;-75
2022/02/06 08:12:28;;;;;;;28.85;22.50;;;;;;;5.04;56.37;101276.78;5063057;28;20040;-76
2022/02/06 08:14:56;;;;;;;31.23;23.52;;;;;;;5.06;56.43;101269.94;5058050;28;20113;-75
2022/02/06 08:17:49;;;;;;;36.97;25.55;;;;;;;5.22;56.13;101286.06;5064813;28;20127;-75
2022/02/06 08:20:18;;;;;;;34.72;24.85;;;;;;;5.25;55.59;101286.22;5073722;28;20072;-75
2022/02/06 08:22:43;;;;;;;35.95;22.55;;;;;;;5.00;55.57;101277.50;5062204;28;20052;-75
2022/02/06 08:25:11;;;;;;;28.75;22.83;;;;;;;5.20;55.58;101287.78;5064738;28;20380;-75
2022/02/06 08:27:38;;;;;;;31.60;24.00;;;;;;;5.36;55.32;101291.78;5068617;28;20054;-74
2022/02/06 08:30:06;;;;;;;39.92;26.55;;;;;;;5.26;55.13;101283.63;5065640;28;20109;-73
2022/02/06 08:32:33;;;;;;;30.73;23.63;;;;;;;5.30;55.01;101287.25;5048546;28;20024;-74
2022/02/06 08:34:59;;;;;;;29.10;25.00;;;;;;;5.24;55.56;101282.72;5065361;28;20436;-74
2022/02/06 08:37:25;;;;;;;35.03;23.83;;;;;;;5.33;55.33;101281.25;5065490;28;20132;-74
2022/02/06 08:39:51;;;;;;;33.13;23.75;;;;;;;5.30;55.45;101271.63;5069021;28;20037;-74
2022/02/06 08:42:17;;;;;;;34.65;24.75;;;;;;;5.15;55.41;101265.88;5067301;28;20170;-75
2022/02/06 08:45:22;;;;;;;30.83;25.77;;;;;;;5.55;54.90;101277.69;5067495;28;20028;-75
2022/02/06 08:48:07;;;;;;;35.08;26.70;;;;;;;5.36;55.44;101287.47;5070455;28;20016;-74
2022/02/06 08:59:45;;;;;;;34.10;25.85;;;;;;;6.01;54.01;101274.03;5063109;28;20028;-74
2022/02/06 09:02:11;;;;;;;30.15;24.00;;;;;;;6.07;53.07;101272.53;5070078;28;20028;-75
2022/02/06 09:04:36;;;;;;;34.28;25.40;;;;;;;6.11;52.63;101265.69;5064004;28;20094;-75
2022/02/06 09:07:05;;;;;;;34.75;24.50;;;;;;;6.05;53.03;101270.72;5067815;28;20040;-75
2022/02/06 09:09:33;;;;;;;30.08;24.23;;;;;;;6.25;52.74;101266.13;5046261;28;20052;-76
2022/02/06 09:12:00;;;;;;;35.30;25.30;;;;;;;6.57;52.30;101279.28;5045335;28;20053;-75
2022/02/06 09:14:27;;;;;;;29.88;22.38;;;;;;;6.47;51.41;101276.38;5040846;28;20445;-75
2022/02/06 09:16:53;;;;;;;34.63;23.77;;;;;;;6.58;51.16;101281.03;5041855;28;20063;-74
2022/02/06 09:19:19;;;;;;;27.90;21.15;;;;;;;6.44;51.18;101281.50;5047625;28;20033;-75
2022/02/06 09:21:50;;;;;;;30.63;22.33;;;;;;;6.52;51.19;101271.31;5050523;28;20037;-75
2022/02/06 09:24:16;;;;;;;32.78;23.35;;;;;;;6.45;51.06;101272.84;5036410;28;20496;-76
2022/02/06 09:26:41;;;;;;;29.85;21.75;;;;;;;6.54;51.57;101254.88;5045492;28;20090;-76
2022/02/06 09:29:08;;;;;;;32.00;24.65;;;;;;;6.54;50.99;101259.22;5042591;28;20087;-76
2022/02/06 09:31:35;;;;;;;30.15;23.10;;;;;;;6.61;51.06;101248.13;5046373;28;20037;-76
2022/02/06 09:36:32;;;;;;;33.40;23.23;;;;;;;6.85;50.47;101227.06;5035635;28;20071;-75
2022/02/06 09:38:58;;;;;;;30.75;24.25;;;;;;;6.68;50.77;101234.41;5048511;28;20037;-76
2022/02/06 09:41:24;;;;;;;33.72;24.05;;;;;;;6.75;50.48;101233.75;5040589;28;20062;-75
2022/02/06 09:43:52;;;;;;;37.97;23.08;;;;;;;6.62;51.02;101230.75;5038842;28;20167;-74
2022/02/06 09:46:19;;;;;;;26.35;22.58;;;;;;;7.02;49.81;101217.09;5040932;28;20060;-76
2022/02/06 09:48:46;;;;;;;30.55;23.35;;;;;;;7.47;49.07;101224.41;5040558;28;20085;-77
2022/02/06 09:51:11;;;;;;;27.73;20.80;;;;;;;7.24;49.11;101209.88;5035317;28;20024;-75
2022/02/06 09:53:38;;;;;;;29.20;21.85;;;;;;;7.52;48.92;101201.91;5039143;28;20526;-75
2022/02/06 09:56:11;;;;;;;34.55;21.33;;;;;;;7.45;48.79;101196.50;5044652;28;20048;-73
2022/02/06 10:01:09;;;;;;;33.25;23.48;;;;;;;7.40;49.65;101218.13;5037700;28;20140;-75
2022/02/06 10:03:47;;;;;;;33.38;22.88;;;;;;;7.45;48.65;101207.81;5033784;28;20063;-73
2022/02/06 10:06:22;;;;;;;28.42;23.27;;;;;;;7.54;49.02;101204.56;5031640;28;20045;-74
2022/02/06 10:08:55;;;;;;;27.02;20.27;;;;;;;7.60;48.51;101191.63;5041304;28;20025;-75
2022/02/06 10:11:25;;;;;;;28.70;21.02;;;;;;;7.87;48.28;101182.72;5041955;28;20033;-75
2022/02/06 10:13:50;;;;;;;24.30;19.35;;;;;;;7.73;48.02;101180.66;5045949;28;20033;-75
2022/02/06 10:16:17;;;;;;;26.45;19.75;;;;;;;8.02;47.25;101188.28;5042670;28;20041;-75
2022/02/06 10:18:59;;;;;;;26.55;20.25;;;;;;;7.83;46.95;101166.94;5049525;28;20132;-75
2022/02/06 10:21:31;;;;;;;27.27;19.10;;;;;;;8.14;46.37;101172.88;5044544;28;20041;-75
2022/02/06 10:24:16;;;;;;;22.65;20.05;;;;;;;8.24;46.01;101161.78;5043603;28;20048;-75
2022/02/06 10:26:52;;;;;;;26.77;16.63;;;;;;;8.36;45.22;101163.78;5031439;28;20068;-74
2022/02/06 10:31:59;;;;;;;33.42;17.90;;;;;;;8.43;45.03;101154.34;5047216;28;20451;-75
2022/02/06 10:34:27;;;;;;;20.00;17.60;;;;;;;8.57;43.92;101147.66;5040346;28;20037;-74
2022/02/06 10:37:16;;;;;;;17.95;14.75;;;;;;;8.64;43.57;101144.31;5047436;28;20127;-74
2022/02/06 10:40:06;;;;;;;28.88;17.13;;;;;;;8.75;43.45;101144.50;5043912;28;20043;-76
2022/02/06 10:42:41;;;;;;;30.60;18.85;;;;;;;8.61;43.76;101146.84;5050474;28;20495;-74
2022/02/06 10:45:37;;;;;;;21.92;17.60;;;;;;;9.09;42.58;101132.94;5045483;28;20052;-74
2022/02/06 10:48:33;;;;;;;17.42;15.13;;;;;;;9.15;42.00;101126.03;5029947;28;20045;-75
2022/02/06 10:50:59;;;;;;;18.35;14.10;;;;;;;9.42;41.37;101108.16;5034901;28;20029;-74
2022/02/06 10:53:25;;;;;;;32.35;14.48;;;;;;;9.93;40.16;101103.69;5034471;28;20034;-74
2022/02/06 10:55:53;;;;;;;18.85;13.77;;;;;;;10.35;39.77;101108.63;5050600;28;20044;-74
2022/02/06 10:58:44;;;;;;;24.02;15.05;;;;;;;9.86;40.23;101100.09;5054599;28;20037;-74
2022/02/06 11:01:47;;;;;;;31.85;14.05;;;;;;;10.00;39.44;101091.56;5050152;28;20065;-74
2022/02/06 11:07:34;;;;;;;18.05;13.75;;;;;;;11.18;36.93;101087.59;5054432;28;20051;-75
2022/02/06 11:10:08;;;;;;;14.60;10.70;;;;;;;11.52;36.34;101083.50;5054263;28;20037;-70
2022/02/06 11:12:34;;;;;;;12.13;9.82;;;;;;;10.81;37.38;101073.25;5048089;28;20052;-78
2022/02/06 11:15:02;;;;;;;12.05;10.43;;;;;;;10.91;37.02;101078.63;5052272;28;20473;-77
2022/02/06 11:17:30;;;;;;;10.77;7.65;;;;;;;10.90;35.57;101081.22;5052021;28;20392;-78
2022/02/06 11:20:10;;;;;;;18.63;8.25;;;;;;;10.90;34.58;101078.59;5052262;28;20033;-78
2022/02/06 11:23:01;;;;;;;12.88;7.70;;;;;;;11.01;34.00;101065.56;5037378;28;20037;-76
2022/02/06 11:25:28;;;;;;;10.50;5.90;;;;;;;11.34;33.13;101065.84;5059796;28;20044;-78
2022/02/06 11:28:41;;;;;;;11.07;5.80;;;;;;;11.72;32.08;101066.97;5053710;28;20191;-75
2022/02/06 11:31:08;;;;;;;8.75;4.65;;;;;;;11.04;32.47;101061.22;5039668;28;20041;-76
2022/02/06 11:33:34;;;;;;;10.65;5.45;;;;;;;11.49;32.78;101064.19;5052590;28;20025;-79
2022/02/06 11:36:19;;;;;;;8.63;5.40;;;;;;;11.63;32.37;101067.78;5048777;28;20103;-79
2022/02/06 11:45:07;;;;;;;10.75;5.47;;;;;;;11.28;32.58;101065.78;5046265;28;20055;-77
2022/02/06 11:47:44;;;;;;;6.72;4.35;;;;;;;11.36;32.42;101040.44;5051071;28;20021;-76
2022/02/06 11:50:37;;;;;;;13.30;6.65;;;;;;;10.96;33.20;101058.53;5036489;28;20064;-76
2022/02/06 11:53:06;;;;;;;9.40;5.75;;;;;;;11.07;33.24;101042.84;5049830;28;20048;-76
2022/02/06 11:55:50;;;;;;;9.00;6.47;;;;;;;10.81;34.35;101044.38;5043314;28;20041;-76
2022/02/06 11:58:40;;;;;;;10.95;5.85;;;;;;;11.03;33.67;101048.97;5058325;28;20128;-75
2022/02/06 12:01:06;;;;;;;10.30;7.80;;;;;;;11.01;33.74;101029.69;5040504;28;20040;-75
2022/02/06 12:03:53;;;;;;;15.65;5.65;;;;;;;10.29;34.39;101040.34;5038281;28;20045;-74
2022/02/06 12:06:20;;;;;;;11.20;5.47;;;;;;;10.37;34.15;101034.31;5022571;28;20048;-74
2022/02/06 12:08:58;;;;;;;10.73;6.10;;;;;;;10.54;34.15;101044.13;5047008;28;20025;-75
2022/02/06 12:11:24;;;;;;;9.10;4.70;;;;;;;10.43;33.97;101024.78;5043499;28;20041;-74
2022/02/06 12:14:20;;;;;;;6.97;4.68;;;;;;;10.15;33.90;101032.28;5058410;28;20041;-75
2022/02/06 12:17:07;;;;;;;8.20;4.55;;;;;;;10.04;33.88;101026.03;5045325;28;20041;-73
2022/02/06 12:19:33;;;;;;;9.00;5.18;;;;;;;10.11;34.07;101014.78;5048655;28;20106;-74
2022/02/06 12:22:39;;;;;;;7.00;5.45;;;;;;;10.18;34.25;101031.44;5051824;28;20029;-75
2022/02/06 12:25:34;;;;;;;9.07;4.78;;;;;;;10.31;33.85;101024.66;5041750;28;20052;-74
2022/02/06 12:28:13;;;;;;;9.10;6.03;;;;;;;10.34;33.91;101011.56;5048850;28;20128;-74
2022/02/06 12:37:09;;;;;;;13.77;5.07;;;;;;;9.65;34.67;101006.34;5049869;28;20091;-74
2022/02/06 12:40:27;;;;;;;12.57;5.72;;;;;;;9.89;34.53;101003.16;5045218;28;20049;-73
2022/02/06 12:43:01;;;;;;;8.38;4.28;;;;;;;10.48;34.30;100985.47;5048613;28;20483;-74
2022/02/06 12:45:29;;;;;;;8.88;4.20;;;;;;;10.17;33.60;100972.00;5054274;28;20037;-73
2022/02/06 12:48:00;;;;;;;11.65;4.68;;;;;;;10.15;33.65;101008.69;5044742;28;20021;-75
2022/02/06 12:50:35;;;;;;;7.00;4.63;;;;;;;10.28;33.56;100973.03;5045220;28;20051;-73
2022/02/06 12:53:05;;;;;;;12.27;6.10;;;;;;;10.58;33.02;100968.91;5038399;28;20111;-73
2022/02/06 12:55:33;;;;;;;10.40;4.72;;;;;;;10.97;32.97;100980.63;5061647;28;20051;-73
2022/02/06 12:58:00;;;;;;;10.60;4.18;;;;;;;10.24;33.43;100973.81;5047268;28;20556;-74
2022/02/06 13:00:32;;;;;;;10.15;4.50;;;;;;;9.94;33.38;100950.78;5047977;28;20055;-73
2022/02/06 13:03:19;;;;;;;5.70;3.70;;;;;;;9.69;33.01;100965.31;5047349;28;20043;-73
2022/02/06 13:05:52;;;;;;;7.00;4.22;;;;;;;10.25;32.93;100967.69;5048877;28;20083;-73
2022/02/06 13:08:52;;;;;;;8.55;5.25;;;;;;;9.99;33.00;100941.22;5054804;28;20028;-73
2022/02/06 13:11:36;;;;;;;9.35;4.70;;;;;;;10.09;33.03;100963.16;5044178;28;20606;-76
2022/02/06 13:14:13;;;;;;;8.93;4.60;;;;;;;9.84;33.52;100959.41;5041201;28;20416;-75
2022/02/06 13:17:12;;;;;;;10.25;4.80;;;;;;;10.22;33.55;100965.06;5042164;28;20041;-76
2022/02/06 13:22:55;;;;;;;7.65;5.07;;;;;;;10.10;32.46;100931.72;5042577;28;20380;-76
2022/02/06 13:28:16;;;;;;;9.30;5.87;;;;;;;10.03;32.71;100924.66;5043497;28;20032;-76
2022/02/06 13:30:56;;;;;;;10.43;6.28;;;;;;;9.94;32.88;100935.91;5038160;28;20481;-76
2022/02/06 13:33:57;;;;;;;6.05;4.72;;;;;;;9.76;32.79;100916.47;5046996;28;20453;-76
2022/02/06 13:39:33;;;;;;;8.65;5.97;;;;;;;10.11;32.42;100923.00;5046923;28;20079;-76
2022/02/06 13:45:28;;;;;;;14.73;5.35;;;;;;;9.89;31.96;100898.28;5053513;28;20039;-77
2022/02/06 13:48:09;;;;;;;8.73;4.65;;;;;;;9.79;31.44;100920.03;5055701;28;20025;-75
2022/02/06 13:50:41;;;;;;;5.57;3.60;;;;;;;9.94;31.72;100906.22;5063120;28;20083;-76
2022/02/06 13:53:18;;;;;;;10.40;4.32;;;;;;;10.10;31.62;100920.34;5034679;28;20039;-76
2022/02/06 13:55:54;;;;;;;11.55;6.72;;;;;;;10.42;31.28;100923.31;5052453;28;20041;-76
2022/02/06 13:59:01;;;;;;;10.45;5.50;;;;;;;9.66;32.09;100892.78;5051654;28;20033;-79
2022/02/06 14:04:51;;;;;;;64.45;29.33;;;;;;;10.04;31.32;100881.84;5042761;28;20040;-77
2022/02/06 14:07:23;;;;;;;17.50;9.38;;;;;;;9.85;31.92;100904.34;5057019;28;20641;-77
2022/02/06 14:10:14;;;;;;;22.33;12.43;;;;;;;9.86;31.64;100879.91;5050806;28;20037;-77
2022/02/06 14:13:20;;;;;;;21.65;12.50;;;;;;;9.99;32.10;100882.66;5051826;28;20037;-77
2022/02/06 14:15:46;;;;;;;23.10;10.93;;;;;;;10.12;32.04;100909.03;5043876;28;20052;-77
2022/02/06 14:18:12;;;;;;;23.85;10.98;;;;;;;9.98;32.68;100884.41;5049170;28;20538;-77
2022/02/06 14:20:37;;;;;;;16.50;8.70;;;;;;;10.02;32.13;100867.84;5050314;28;20108;-76
2022/02/06 14:23:38;;;;;;;27.00;12.07;;;;;;;10.25;32.82;100873.28;5048596;28;20029;-77
2022/02/06 14:26:52;;;;;;;18.30;9.13;;;;;;;10.10;32.81;100868.78;5050241;28;20104;-77
2022/02/06 14:29:18;;;;;;;;;;;;;;;9.92;31.98;100905.31;5056890;28;20033;-77
2022/02/06 14:31:45;;;;;;;11.60;6.07;;;;;;;9.61;32.26;100877.91;5046184;28;19969;-77
2022/02/06 14:34:18;;;;;;;7.05;4.00;;;;;;;9.54;32.40;100868.22;5058770;28;20070;-77
2022/02/06 14:40:22;;;;;;;9.95;4.57;;;;;;;9.43;32.78;100850.59;5048176;28;20047;-77
2022/02/06 14:42:57;;;;;;;8.75;4.55;;;;;;;9.65;32.87;100883.19;5055544;28;20040;-77
2022/02/06 14:45:22;;;;;;;9.20;4.32;;;;;;;9.59;32.63;100850.78;5054163;28;20116;-77
2022/02/06 14:47:49;;;;;;;10.77;4.57;;;;;;;9.73;33.20;100847.44;5055828;28;20106;-77
2022/02/06 14:50:59;;;;;;;7.78;4.35;;;;;;;9.92;33.84;100876.47;5045148;28;20029;-77
2022/02/06 14:53:25;;;;;;;20.48;4.82;;;;;;;9.67;33.15;100857.88;5051600;28;20046;-75
2022/02/06 14:55:55;;;;;;;8.25;3.95;;;;;;;9.52;33.11;100844.59;5052233;28;20082;-73
2022/02/06 14:58:22;;;;;;;9.15;4.10;;;;;;;9.51;33.76;100867.31;5048484;28;20120;-75
2022/02/06 15:00:49;;;;;;;12.40;5.32;;;;;;;9.51;33.43;100861.19;5042749;28;20045;-74
2022/02/06 15:03:17;;;;;;;9.70;5.10;;;;;;;9.22;33.82;100852.97;5050413;28;20049;-74
2022/02/06 15:06:10;;;;;;;8.48;5.32;;;;;;;9.38;33.47;100867.16;5051493;28;20463;-74
2022/02/06 15:08:35;;;;;;;8.70;5.22;;;;;;;9.33;33.57;100848.75;5057458;28;20033;-73
2022/02/06 15:11:02;;;;;;;11.02;5.50;;;;;;;9.31;33.91;100855.72;5051630;28;20037;-74
2022/02/06 15:13:34;;;;;;;6.05;3.45;;;;;;;8.97;34.25;100841.31;5052085;28;20052;-74
2022/02/06 15:16:06;;;;;;;9.65;4.75;;;;;;;9.18;34.07;100854.69;5044124;28;20037;-74
2022/02/06 15:21:00;;;;;;;26.08;6.35;;;;;;;9.18;33.99;100838.97;5051700;28;20087;-74
2022/02/06 15:23:26;;;;;;;10.70;6.00;;;;;;;9.22;34.28;100852.97;5047095;28;20036;-72
2022/02/06 15:25:54;;;;;;;10.68;5.65;;;;;;;9.03;34.27;100839.63;5056271;28;20055;-74
2022/02/06 15:28:30;;;;;;;10.23;5.70;;;;;;;9.03;34.94;100857.09;5062900;28;20047;-74
2022/02/06 15:30:55;;;;;;;11.10;5.70;;;;;;;8.85;34.82;100842.91;5050233;28;20045;-72
2022/02/06 15:33:52;;;;;;;13.10;5.13;;;;;;;9.04;34.80;100858.88;5050517;28;20048;-73
2022/02/06 15:36:18;;;;;;;7.22;4.35;;;;;;;8.78;34.53;100829.69;5057154;28;20520;-73
2022/02/06 15:38:45;;;;;;;11.18;5.85;;;;;;;8.84;35.05;100842.88;5047137;28;20115;-75
2022/02/06 15:41:12;;;;;;;16.30;6.13;;;;;;;8.83;34.53;100852.47;5045840;28;20040;-73
2022/02/06 15:43:38;;;;;;;10.73;6.55;;;;;;;8.75;35.17;100845.38;5033247;28;20040;-76
2022/02/06 15:46:04;;;;;;;9.15;4.35;;;;;;;8.71;34.73;100833.09;5045049;28;20040;-73
2022/02/06 15:48:30;;;;;;;16.25;5.22;;;;;;;8.53;35.46;100855.50;5036541;28;20049;-75
2022/02/06 15:51:07;;;;;;;9.10;5.22;;;;;;;8.60;35.08;100823.34;5049886;28;20520;-74
2022/02/06 15:53:32;;;;;;;7.35;4.53;;;;;;;8.64;35.09;100848.72;5037965;28;20013;-77
2022/02/06 15:55:58;;;;;;;9.57;4.88;;;;;;;8.29;35.32;100816.75;5041527;28;20037;-77
2022/02/06 15:58:23;;;;;;;12.30;4.00;;;;;;;8.15;35.47;100823.50;5038866;28;20041;-75
2022/02/06 16:00:49;;;;;;;19.83;4.95;;;;;;;8.31;35.30;100811.53;5040244;28;20379;-76
2022/02/06 16:03:14;;;;;;;7.60;5.15;;;;;;;8.41;35.40;100837.03;5038946;28;20045;-76
2022/02/06 16:05:41;;;;;;;11.32;5.57;;;;;;;8.38;35.11;100831.69;5039070;28;20025;-75
2022/02/06 16:08:06;;;;;;;12.25;6.13;;;;;;;8.39;35.96;100828.25;5036124;28;20033;-75
2022/02/06 16:10:32;;;;;;;9.85;5.25;;;;;;;8.36;35.49;100846.50;5041206;28;20991;-75
2022/02/06 16:12:58;;;;;;;12.30;5.78;;;;;;;8.31;35.48;100832.44;5037317;28;20292;-76
2022/02/06 16:15:24;;;;;;;10.90;4.68;;;;;;;8.28;35.93;100851.59;5040495;28;20040;-76
2022/02/06 16:17:49;;;;;;;9.52;5.38;;;;;;;8.00;35.90;100832.81;5038885;28;20025;-76
2022/02/06 16:20:15;;;;;;;10.85;5.22;;;;;;;8.21;35.87;100858.44;5041483;28;20387;-76
2022/02/06 16:22:44;;;;;;;11.38;6.10;;;;;;;8.13;36.07;100839.16;5037302;28;20040;-75
2022/02/06 16:25:10;;;;;;;11.05;6.05;;;;;;;8.06;36.77;100839.03;5038763;28;20092;-75